Zim Luanda — 9HA2029 — position and weather

sailwx.info

Track history (hours):
 
Tides and Currents Weather Stations Pressure Air Temp Water Temp Dewpoint Dewpoint Depression Visibility Wind Speed Wind Dir Waves Ship Positions

Zim Luanda

Last reported at 2017-Jan-21 03:29 UTC. Time now 2017-Jan-21 06:18 UTC.
Position N 41°04' E 001°34'.

Length 260 m; draft 11.5 m.

Type: Ship (hazmat cat A). MMSI: 249830000.

Date/timePositionNaut miles runAvg speedWind from/ knotsBaromVisibWave heightAir tempDewpointWater temp
2017-Jan-21 03:29N 41°04' E 001°34'1412.6
2017-Jan-21 02:23N 41°07' E 001°52'1112.7
2017-Jan-21 01:32N 41°09' E 002°06'1312.8
2017-Jan-21 00:33N 41°16' E 002°20'1312.8
2017-Jan-20 23:31N 41°22' E 002°36'22713.4
2017-Jan-20 06:32N 43°12' E 007°04'1818.9
2017-Jan-20 05:33N 43°25' E 007°23'1919.0
2017-Jan-20 04:33N 43°37' E 007°43'3718.6
2017-Jan-20 02:33N 43°60' E 008°23'1918.6
2017-Jan-20 01:33N 44°12' E 008°43'1515.1
2017-Jan-20 00:33N 44°23' E 008°56'2 2.0
2017-Jan-19 23:32N 44°24' E 008°54'0 0.0
2017-Jan-19 22:32N 44°24' E 008°54'0 0.0
2017-Jan-19 21:32N 44°24' E 008°54'0 0.0
2017-Jan-19 20:32N 44°24' E 008°54'0 0.0
2017-Jan-19 19:28N 44°24' E 008°54'0 0.0
2017-Jan-19 18:29N 44°24' E 008°54'0 0.0
2017-Jan-19 17:31N 44°24' E 008°54'0 0.0
2017-Jan-19 16:32N 44°24' E 008°54'0 0.0
2017-Jan-19 15:32N 44°24' E 008°54'0 0.0
2017-Jan-19 14:31N 44°24' E 008°54'0 0.0
2017-Jan-19 13:32N 44°24' E 008°54'0 0.0
2017-Jan-19 12:32N 44°24' E 008°54'0 0.0
2017-Jan-19 11:31N 44°24' E 008°54'0 0.0
2017-Jan-19 10:31N 44°24' E 008°54'0 0.0
2017-Jan-19 09:31N 44°24' E 008°54'0 0.0
2017-Jan-19 08:31N 44°24' E 008°54'0 0.0
2017-Jan-19 07:32N 44°24' E 008°54'1 0.6
2017-Jan-19 06:33N 44°24' E 008°54'6 6.1
2017-Jan-19 05:34N 44°19' E 008°59'1110.6
2017-Jan-19 04:34N 44°09' E 009°05'1212.2
2017-Jan-19 03:34N 43°58' E 009°12'1212.5
2017-Jan-19 02:34N 43°49' E 009°23'1212.2
2017-Jan-19 01:34N 43°41' E 009°36'1312.7
2017-Jan-19 00:34N 43°32' E 009°49'1312.6
2017-Jan-18 23:34N 43°31' E 010°06'10 9.7
2017-Jan-18 22:33N 43°34' E 010°18'1 0.5
2017-Jan-18 21:30N 43°35' E 010°18'0 0.0
2017-Jan-18 20:33N 43°35' E 010°18'0 0.0
2017-Jan-18 19:33N 43°35' E 010°18'0 0.0
2017-Jan-18 18:33N 43°35' E 010°18'0 0.0
2017-Jan-18 17:33N 43°35' E 010°18'0 0.0
2017-Jan-18 16:30N 43°35' E 010°18'0 0.0
2017-Jan-18 15:33N 43°35' E 010°18'0 0.0
2017-Jan-18 14:33N 43°35' E 010°18'0 0.0
2017-Jan-18 13:33N 43°35' E 010°18'0 0.0
2017-Jan-18 12:33N 43°35' E 010°18'0 0.0
2017-Jan-18 11:33N 43°35' E 010°18'0 0.0
2017-Jan-18 10:33N 43°35' E 010°18'0 0.0
2017-Jan-18 09:33N 43°35' E 010°18'0 0.0
2017-Jan-18 08:33N 43°35' E 010°18'0 0.0
2017-Jan-18 07:33N 43°35' E 010°18'0 0.0
2017-Jan-18 06:30N 43°35' E 010°18'2 2.3
2017-Jan-18 05:33N 43°33' E 010°17'7 6.6
2017-Jan-18 04:33N 43°28' E 010°11'1313.1
2017-Jan-18 03:33N 43°15' E 010°09'1414.3
2017-Jan-18 02:34N 43°01' E 010°06'2713.1
2017-Jan-18 00:31N 42°34' E 010°14'31616.7
2017-Jan-17 05:33N 38°48' E 015°05'1919.0
2017-Jan-17 04:33N 38°34' E 015°22'1918.8
2017-Jan-17 03:34N 38°21' E 015°39'1414.3
2017-Jan-17 02:34N 38°07' E 015°37'1616.1
2017-Jan-17 01:33N 37°52' E 015°45'36916.4
2017-Jan-16 03:05N 36°46' E 023°22'1318.5
2017-Jan-16 02:24N 36°58' E 023°26'3518.7
2017-Jan-16 00:33N 37°31' E 023°40'1818.1
2017-Jan-15 23:33N 37°49' E 023°37'8 8.4
2017-Jan-15 22:33N 37°57' E 023°36'0 0.0
2017-Jan-15 21:30N 37°57' E 023°36'0 0.0
2017-Jan-15 20:33N 37°57' E 023°36'0 0.0
2017-Jan-15 19:33N 37°57' E 023°36'0 0.0
2017-Jan-15 18:33N 37°57' E 023°36'0 0.0
2017-Jan-15 17:33N 37°57' E 023°36'0 0.0
2017-Jan-15 16:33N 37°57' E 023°36'0 0.0
2017-Jan-15 15:33N 37°57' E 023°36'0 0.0
2017-Jan-15 14:33N 37°57' E 023°36'0 0.0
2017-Jan-15 13:33N 37°57' E 023°36'0 0.0
2017-Jan-15 12:30N 37°57' E 023°36'0 0.0
2017-Jan-15 11:33N 37°57' E 023°36'0 0.0
2017-Jan-15 10:33N 37°57' E 023°36'0 0.0
2017-Jan-15 09:33N 37°57' E 023°36'0 0.0
2017-Jan-15 08:33N 37°57' E 023°36'0 0.0
2017-Jan-15 07:33N 37°57' E 023°36'0 0.0
2017-Jan-15 06:30N 37°57' E 023°36'2 2.1
2017-Jan-15 05:33N 37°55' E 023°37'2 1.9
2017-Jan-15 04:33N 37°54' E 023°36'5 5.0
2017-Jan-15 03:33N 37°50' E 023°40'1111.2
2017-Jan-15 02:33N 37°40' E 023°46'1515.1
2017-Jan-15 01:33N 37°29' E 023°59'58916.1
2017-Jan-13 13:04N 32°57' E 034°38'917.6
2017-Jan-13 12:32N 32°55' E 034°49'1111.7
2017-Jan-13 11:33N 32°49' E 035°01'0 0.2
2017-Jan-13 10:32N 32°49' E 035°01'0 0.0
2017-Jan-13 09:29N 32°49' E 035°01'0 0.0
2017-Jan-13 08:32N 32°49' E 035°01'0 0.0
2017-Jan-13 07:29N 32°49' E 035°01'0 0.0
2017-Jan-13 06:32N 32°49' E 035°01'0 0.0
2017-Jan-13 05:29N 32°49' E 035°01'0 0.0
2017-Jan-13 04:26N 32°49' E 035°01'0 0.0
2017-Jan-13 03:29N 32°49' E 035°01'0 0.0
2017-Jan-13 02:23N 32°49' E 035°01'0 0.0
2017-Jan-13 01:32N 32°49' E 035°01'0 0.0
2017-Jan-13 00:32N 32°49' E 035°01'0 0.0
2017-Jan-12 23:32N 32°49' E 035°01'0 0.0
2017-Jan-12 13:26N 32°49' E 035°01'0 0.0
2017-Jan-12 12:32N 32°49' E 035°01'0 0.0
2017-Jan-12 11:32N 32°49' E 035°01'0 0.0
2017-Jan-12 10:32N 32°49' E 035°01'0 0.0
2017-Jan-12 09:32N 32°49' E 035°01'0 0.0
2017-Jan-12 08:32N 32°49' E 035°01'0 0.0
2017-Jan-12 07:32N 32°49' E 035°01'0 0.0
2017-Jan-12 06:32N 32°49' E 035°01'0 0.0
2017-Jan-12 05:29N 32°49' E 035°01'0 0.0
2017-Jan-12 04:32N 32°49' E 035°01'0 0.0
2017-Jan-12 03:32N 32°49' E 035°01'0 0.0
2017-Jan-12 02:32N 32°49' E 035°01'2 2.3
2017-Jan-12 01:33N 32°51' E 035°00'2 2.3
2017-Jan-12 00:33N 32°53' E 034°59'1 1.2
2017-Jan-11 23:32N 32°54' E 034°59'0 0.0
2017-Jan-11 22:32N 32°54' E 034°59'0 0.0
2017-Jan-11 21:32N 32°54' E 034°59'0 0.0
2017-Jan-11 20:32N 32°54' E 034°59'0 0.0
2017-Jan-11 19:32N 32°54' E 034°59'0 0.0
2017-Jan-11 18:32N 32°54' E 034°59'0 0.0
2017-Jan-11 17:29N 32°54' E 034°59'0 0.0
2017-Jan-11 16:32N 32°54' E 034°59'0 0.1
2017-Jan-11 15:32N 32°54' E 034°59'0 0.1
2017-Jan-11 14:32N 32°54' E 034°59'0 0.1
2017-Jan-11 13:34N 32°54' E 034°59'8 8.0
2017-Jan-11 12:31N 32°50' E 034°50'1212.9
2017-Jan-11 11:34N 32°38' E 034°46'1312.8
2017-Jan-11 10:33N 32°26' E 034°42'1312.6
2017-Jan-11 09:34N 32°14' E 034°38'1312.6
2017-Jan-11 08:31N 32°01' E 034°34'10 8.6
2017-Jan-11 07:21N 31°52' E 034°38'  
Track history (hours):
 
Tides and Currents Weather Stations Pressure Air Temp Water Temp Dewpoint Dewpoint Depression Visibility Wind Speed Wind Dir Waves Ship Positions

Zim Luanda

Last reported at 2017-Jan-21 03:29 UTC. Time now 2017-Jan-21 06:18 UTC.
Position N 41°04' E 001°34'.

Length 260 m; draft 11.5 m.

Type: Ship (hazmat cat A). MMSI: 249830000.

Date/timePositionNaut miles runAvg speedWind from/ knotsBaromVisibWave heightAir tempDewpointWater temp
2017-Jan-21 03:29N 41°04' E 001°34'1412.6
2017-Jan-21 02:23N 41°07' E 001°52'1112.7
2017-Jan-21 01:32N 41°09' E 002°06'1312.8
2017-Jan-21 00:33N 41°16' E 002°20'1312.8
2017-Jan-20 23:31N 41°22' E 002°36'22713.4
2017-Jan-20 06:32N 43°12' E 007°04'1818.9
2017-Jan-20 05:33N 43°25' E 007°23'1919.0
2017-Jan-20 04:33N 43°37' E 007°43'3718.6
2017-Jan-20 02:33N 43°60' E 008°23'1918.6
2017-Jan-20 01:33N 44°12' E 008°43'1515.1
2017-Jan-20 00:33N 44°23' E 008°56'2 2.0
2017-Jan-19 23:32N 44°24' E 008°54'0 0.0
2017-Jan-19 22:32N 44°24' E 008°54'0 0.0
2017-Jan-19 21:32N 44°24' E 008°54'0 0.0
2017-Jan-19 20:32N 44°24' E 008°54'0 0.0
2017-Jan-19 19:28N 44°24' E 008°54'0 0.0
2017-Jan-19 18:29N 44°24' E 008°54'0 0.0
2017-Jan-19 17:31N 44°24' E 008°54'0 0.0
2017-Jan-19 16:32N 44°24' E 008°54'0 0.0
2017-Jan-19 15:32N 44°24' E 008°54'0 0.0
2017-Jan-19 14:31N 44°24' E 008°54'0 0.0
2017-Jan-19 13:32N 44°24' E 008°54'0 0.0
2017-Jan-19 12:32N 44°24' E 008°54'0 0.0
2017-Jan-19 11:31N 44°24' E 008°54'0 0.0
2017-Jan-19 10:31N 44°24' E 008°54'0 0.0
2017-Jan-19 09:31N 44°24' E 008°54'0 0.0
2017-Jan-19 08:31N 44°24' E 008°54'0 0.0
2017-Jan-19 07:32N 44°24' E 008°54'1 0.6
2017-Jan-19 06:33N 44°24' E 008°54'6 6.1
2017-Jan-19 05:34N 44°19' E 008°59'1110.6
2017-Jan-19 04:34N 44°09' E 009°05'1212.2
2017-Jan-19 03:34N 43°58' E 009°12'1212.5
2017-Jan-19 02:34N 43°49' E 009°23'1212.2
2017-Jan-19 01:34N 43°41' E 009°36'1312.7
2017-Jan-19 00:34N 43°32' E 009°49'1312.6
2017-Jan-18 23:34N 43°31' E 010°06'10 9.7
2017-Jan-18 22:33N 43°34' E 010°18'1 0.5
2017-Jan-18 21:30N 43°35' E 010°18'0 0.0
2017-Jan-18 20:33N 43°35' E 010°18'0 0.0
2017-Jan-18 19:33N 43°35' E 010°18'0 0.0
2017-Jan-18 18:33N 43°35' E 010°18'0 0.0
2017-Jan-18 17:33N 43°35' E 010°18'0 0.0
2017-Jan-18 16:30N 43°35' E 010°18'0 0.0
2017-Jan-18 15:33N 43°35' E 010°18'0 0.0
2017-Jan-18 14:33N 43°35' E 010°18'0 0.0
2017-Jan-18 13:33N 43°35' E 010°18'0 0.0
2017-Jan-18 12:33N 43°35' E 010°18'0 0.0
2017-Jan-18 11:33N 43°35' E 010°18'0 0.0
2017-Jan-18 10:33N 43°35' E 010°18'0 0.0
2017-Jan-18 09:33N 43°35' E 010°18'0 0.0
2017-Jan-18 08:33N 43°35' E 010°18'0 0.0
2017-Jan-18 07:33N 43°35' E 010°18'0 0.0
2017-Jan-18 06:30N 43°35' E 010°18'2 2.3
2017-Jan-18 05:33N 43°33' E 010°17'7 6.6
2017-Jan-18 04:33N 43°28' E 010°11'1313.1
2017-Jan-18 03:33N 43°15' E 010°09'1414.3
2017-Jan-18 02:34N 43°01' E 010°06'2713.1
2017-Jan-18 00:31N 42°34' E 010°14'31616.7
2017-Jan-17 05:33N 38°48' E 015°05'1919.0
2017-Jan-17 04:33N 38°34' E 015°22'1918.8
2017-Jan-17 03:34N 38°21' E 015°39'1414.3
2017-Jan-17 02:34N 38°07' E 015°37'1616.1
2017-Jan-17 01:33N 37°52' E 015°45'36916.4
2017-Jan-16 03:05N 36°46' E 023°22'1318.5
2017-Jan-16 02:24N 36°58' E 023°26'3518.7
2017-Jan-16 00:33N 37°31' E 023°40'1818.1
2017-Jan-15 23:33N 37°49' E 023°37'8 8.4
2017-Jan-15 22:33N 37°57' E 023°36'0 0.0
2017-Jan-15 21:30N 37°57' E 023°36'0 0.0
2017-Jan-15 20:33N 37°57' E 023°36'0 0.0
2017-Jan-15 19:33N 37°57' E 023°36'0 0.0
2017-Jan-15 18:33N 37°57' E 023°36'0 0.0
2017-Jan-15 17:33N 37°57' E 023°36'0 0.0
2017-Jan-15 16:33N 37°57' E 023°36'0 0.0
2017-Jan-15 15:33N 37°57' E 023°36'0 0.0
2017-Jan-15 14:33N 37°57' E 023°36'0 0.0
2017-Jan-15 13:33N 37°57' E 023°36'0 0.0
2017-Jan-15 12:30N 37°57' E 023°36'0 0.0
2017-Jan-15 11:33N 37°57' E 023°36'0 0.0
2017-Jan-15 10:33N 37°57' E 023°36'0 0.0
2017-Jan-15 09:33N 37°57' E 023°36'0 0.0
2017-Jan-15 08:33N 37°57' E 023°36'0 0.0
2017-Jan-15 07:33N 37°57' E 023°36'0 0.0
2017-Jan-15 06:30N 37°57' E 023°36'2 2.1
2017-Jan-15 05:33N 37°55' E 023°37'2 1.9
2017-Jan-15 04:33N 37°54' E 023°36'5 5.0
2017-Jan-15 03:33N 37°50' E 023°40'1111.2
2017-Jan-15 02:33N 37°40' E 023°46'1515.1
2017-Jan-15 01:33N 37°29' E 023°59'58916.1
2017-Jan-13 13:04N 32°57' E 034°38'917.6
2017-Jan-13 12:32N 32°55' E 034°49'1111.7
2017-Jan-13 11:33N 32°49' E 035°01'0 0.2
2017-Jan-13 10:32N 32°49' E 035°01'0 0.0
2017-Jan-13 09:29N 32°49' E 035°01'0 0.0
2017-Jan-13 08:32N 32°49' E 035°01'0 0.0
2017-Jan-13 07:29N 32°49' E 035°01'0 0.0
2017-Jan-13 06:32N 32°49' E 035°01'0 0.0
2017-Jan-13 05:29N 32°49' E 035°01'0 0.0
2017-Jan-13 04:26N 32°49' E 035°01'0 0.0
2017-Jan-13 03:29N 32°49' E 035°01'0 0.0
2017-Jan-13 02:23N 32°49' E 035°01'0 0.0
2017-Jan-13 01:32N 32°49' E 035°01'0 0.0
2017-Jan-13 00:32N 32°49' E 035°01'0 0.0
2017-Jan-12 23:32N 32°49' E 035°01'0 0.0
2017-Jan-12 13:26N 32°49' E 035°01'0 0.0
2017-Jan-12 12:32N 32°49' E 035°01'0 0.0
2017-Jan-12 11:32N 32°49' E 035°01'0 0.0
2017-Jan-12 10:32N 32°49' E 035°01'0 0.0
2017-Jan-12 09:32N 32°49' E 035°01'0 0.0
2017-Jan-12 08:32N 32°49' E 035°01'0 0.0
2017-Jan-12 07:32N 32°49' E 035°01'0 0.0
2017-Jan-12 06:32N 32°49' E 035°01'0 0.0
2017-Jan-12 05:29N 32°49' E 035°01'0 0.0
2017-Jan-12 04:32N 32°49' E 035°01'0 0.0
2017-Jan-12 03:32N 32°49' E 035°01'0 0.0
2017-Jan-12 02:32N 32°49' E 035°01'2 2.3
2017-Jan-12 01:33N 32°51' E 035°00'2 2.3
2017-Jan-12 00:33N 32°53' E 034°59'1 1.2
2017-Jan-11 23:32N 32°54' E 034°59'0 0.0
2017-Jan-11 22:32N 32°54' E 034°59'0 0.0
2017-Jan-11 21:32N 32°54' E 034°59'0 0.0
2017-Jan-11 20:32N 32°54' E 034°59'0 0.0
2017-Jan-11 19:32N 32°54' E 034°59'0 0.0
2017-Jan-11 18:32N 32°54' E 034°59'0 0.0
2017-Jan-11 17:29N 32°54' E 034°59'0 0.0
2017-Jan-11 16:32N 32°54' E 034°59'0 0.1
2017-Jan-11 15:32N 32°54' E 034°59'0 0.1
2017-Jan-11 14:32N 32°54' E 034°59'0 0.1
2017-Jan-11 13:34N 32°54' E 034°59'8 8.0
2017-Jan-11 12:31N 32°50' E 034°50'1212.9
2017-Jan-11 11:34N 32°38' E 034°46'1312.8
2017-Jan-11 10:33N 32°26' E 034°42'1312.6
2017-Jan-11 09:34N 32°14' E 034°38'1312.6
2017-Jan-11 08:31N 32°01' E 034°34'10 8.6
2017-Jan-11 07:21N 31°52' E 034°38'  

Dump ship's entire track history